sensor_id;sensor_type;location;lat;lon;timestamp;P1;durP1;ratioP1;P2;durP2;ratioP2
80233;SDS011;69542;42.138;24.742;2023-04-24T00:00:53;2.97;;;2.78;;
80233;SDS011;69542;42.138;24.742;2023-04-24T00:03:22;2.72;;;2.53;;
80233;SDS011;69542;42.138;24.742;2023-04-24T00:05:48;3.50;;;2.75;;
80233;SDS011;69542;42.138;24.742;2023-04-24T00:08:16;2.80;;;2.60;;
80233;SDS011;69542;42.138;24.742;2023-04-24T00:10:42;2.92;;;2.72;;
80233;SDS011;69542;42.138;24.742;2023-04-24T00:13:08;2.60;;;2.40;;
80233;SDS011;69542;42.138;24.742;2023-04-24T00:15:34;3.35;;;2.70;;
80233;SDS011;69542;42.138;24.742;2023-04-24T00:18:01;3.20;;;2.75;;
80233;SDS011;69542;42.138;24.742;2023-04-24T00:20:27;2.70;;;2.50;;
80233;SDS011;69542;42.138;24.742;2023-04-24T00:22:54;3.15;;;2.90;;
80233;SDS011;69542;42.138;24.742;2023-04-24T00:25:20;2.92;;;2.63;;
80233;SDS011;69542;42.138;24.742;2023-04-24T00:27:46;2.83;;;2.60;;
80233;SDS011;69542;42.138;24.742;2023-04-24T00:30:11;3.17;;;2.90;;
80233;SDS011;69542;42.138;24.742;2023-04-24T00:32:37;2.80;;;2.60;;
80233;SDS011;69542;42.138;24.742;2023-04-24T00:35:06;2.72;;;2.50;;
80233;SDS011;69542;42.138;24.742;2023-04-24T00:37:32;3.55;;;2.80;;
80233;SDS011;69542;42.138;24.742;2023-04-24T00:39:58;2.78;;;2.40;;
80233;SDS011;69542;42.138;24.742;2023-04-24T00:42:24;3.10;;;2.80;;
80233;SDS011;69542;42.138;24.742;2023-04-24T00:44:50;2.97;;;2.50;;
80233;SDS011;69542;42.138;24.742;2023-04-24T00:47:16;3.40;;;2.65;;
80233;SDS011;69542;42.138;24.742;2023-04-24T00:49:43;3.00;;;2.70;;
80233;SDS011;69542;42.138;24.742;2023-04-24T00:52:09;3.17;;;2.88;;
80233;SDS011;69542;42.138;24.742;2023-04-24T00:54:35;3.00;;;2.70;;
80233;SDS011;69542;42.138;24.742;2023-04-24T00:57:04;2.83;;;2.63;;
80233;SDS011;69542;42.138;24.742;2023-04-24T00:59:30;4.10;;;2.95;;
80233;SDS011;69542;42.138;24.742;2023-04-24T01:01:57;3.10;;;2.75;;
80233;SDS011;69542;42.138;24.742;2023-04-24T01:04:28;2.75;;;2.55;;
80233;SDS011;69542;42.138;24.742;2023-04-24T01:06:54;2.90;;;2.70;;
80233;SDS011;69542;42.138;24.742;2023-04-24T01:09:21;2.90;;;2.67;;
80233;SDS011;69542;42.138;24.742;2023-04-24T01:11:48;2.83;;;2.60;;
80233;SDS011;69542;42.138;24.742;2023-04-24T01:14:15;2.90;;;2.70;;
80233;SDS011;69542;42.138;24.742;2023-04-24T01:16:40;3.22;;;2.92;;
80233;SDS011;69542;42.138;24.742;2023-04-24T01:19:07;3.10;;;2.80;;
80233;SDS011;69542;42.138;24.742;2023-04-24T01:21:36;3.17;;;2.75;;
80233;SDS011;69542;42.138;24.742;2023-04-24T01:24:03;3.13;;;2.70;;
80233;SDS011;69542;42.138;24.742;2023-04-24T01:26:29;3.10;;;2.78;;
80233;SDS011;69542;42.138;24.742;2023-04-24T01:28:55;3.72;;;2.90;;
80233;SDS011;69542;42.138;24.742;2023-04-24T01:31:21;3.20;;;2.90;;
80233;SDS011;69542;42.138;24.742;2023-04-24T01:33:47;3.05;;;2.85;;
80233;SDS011;69542;42.138;24.742;2023-04-24T01:36:13;3.00;;;2.70;;
80233;SDS011;69542;42.138;24.742;2023-04-24T01:38:41;3.17;;;2.63;;
80233;SDS011;69542;42.138;24.742;2023-04-24T01:41:09;3.40;;;3.10;;
80233;SDS011;69542;42.138;24.742;2023-04-24T01:43:35;2.85;;;2.65;;
80233;SDS011;69542;42.138;24.742;2023-04-24T01:46:01;3.10;;;2.80;;
80233;SDS011;69542;42.138;24.742;2023-04-24T01:48:26;3.17;;;2.70;;
80233;SDS011;69542;42.138;24.742;2023-04-24T01:50:55;3.55;;;2.78;;
80233;SDS011;69542;42.138;24.742;2023-04-24T01:53:24;2.97;;;2.67;;
80233;SDS011;69542;42.138;24.742;2023-04-24T01:55:49;5.03;;;3.00;;
80233;SDS011;69542;42.138;24.742;2023-04-24T01:58:15;2.78;;;2.58;;
80233;SDS011;69542;42.138;24.742;2023-04-24T02:00:41;3.15;;;2.88;;
80233;SDS011;69542;42.138;24.742;2023-04-24T02:03:06;3.05;;;2.75;;
80233;SDS011;69542;42.138;24.742;2023-04-24T02:05:34;3.05;;;2.75;;
80233;SDS011;69542;42.138;24.742;2023-04-24T02:08:02;2.92;;;2.65;;
80233;SDS011;69542;42.138;24.742;2023-04-24T02:10:28;3.50;;;2.72;;
80233;SDS011;69542;42.138;24.742;2023-04-24T02:12:54;3.03;;;2.83;;
80233;SDS011;69542;42.138;24.742;2023-04-24T02:15:19;3.17;;;2.70;;
80233;SDS011;69542;42.138;24.742;2023-04-24T02:17:45;3.17;;;2.85;;
80233;SDS011;69542;42.138;24.742;2023-04-24T02:20:10;3.20;;;2.90;;
80233;SDS011;69542;42.138;24.742;2023-04-24T02:22:36;3.10;;;2.80;;
80233;SDS011;69542;42.138;24.742;2023-04-24T02:25:02;3.42;;;2.83;;
80233;SDS011;69542;42.138;24.742;2023-04-24T02:27:28;3.63;;;3.20;;
80233;SDS011;69542;42.138;24.742;2023-04-24T02:29:56;3.22;;;2.92;;
80233;SDS011;69542;42.138;24.742;2023-04-24T02:32:22;3.05;;;2.75;;
80233;SDS011;69542;42.138;24.742;2023-04-24T02:34:47;3.28;;;2.90;;
80233;SDS011;69542;42.138;24.742;2023-04-24T02:37:13;4.15;;;2.90;;
80233;SDS011;69542;42.138;24.742;2023-04-24T02:39:39;3.28;;;2.97;;
80233;SDS011;69542;42.138;24.742;2023-04-24T02:42:04;3.08;;;2.78;;
80233;SDS011;69542;42.138;24.742;2023-04-24T02:44:32;3.35;;;3.05;;
80233;SDS011;69542;42.138;24.742;2023-04-24T02:46:58;3.15;;;2.88;;
80233;SDS011;69542;42.138;24.742;2023-04-24T02:49:24;3.13;;;2.78;;
80233;SDS011;69542;42.138;24.742;2023-04-24T02:51:50;3.40;;;3.10;;
80233;SDS011;69542;42.138;24.742;2023-04-24T02:54:19;3.00;;;2.75;;
80233;SDS011;69542;42.138;24.742;2023-04-24T02:56:44;3.10;;;2.80;;
80233;SDS011;69542;42.138;24.742;2023-04-24T02:59:10;2.90;;;2.70;;
80233;SDS011;69542;42.138;24.742;2023-04-24T03:01:36;3.08;;;2.78;;
80233;SDS011;69542;42.138;24.742;2023-04-24T03:04:01;3.40;;;3.10;;
80233;SDS011;69542;42.138;24.742;2023-04-24T03:06:27;3.10;;;2.80;;
80233;SDS011;69542;42.138;24.742;2023-04-24T03:08:53;4.05;;;3.03;;
80233;SDS011;69542;42.138;24.742;2023-04-24T03:11:19;3.28;;;3.00;;
80233;SDS011;69542;42.138;24.742;2023-04-24T03:13:45;3.17;;;2.90;;
80233;SDS011;69542;42.138;24.742;2023-04-24T03:16:11;3.47;;;3.08;;
80233;SDS011;69542;42.138;24.742;2023-04-24T03:18:36;3.42;;;3.13;;
80233;SDS011;69542;42.138;24.742;2023-04-24T03:21:02;3.35;;;3.03;;
80233;SDS011;69542;42.138;24.742;2023-04-24T03:23:28;2.97;;;2.78;;
80233;SDS011;69542;42.138;24.742;2023-04-24T03:25:54;3.13;;;2.92;;
80233;SDS011;69542;42.138;24.742;2023-04-24T03:28:20;3.25;;;2.95;;
80233;SDS011;69542;42.138;24.742;2023-04-24T03:30:45;2.95;;;2.75;;
80233;SDS011;69542;42.138;24.742;2023-04-24T03:33:11;3.72;;;3.17;;
80233;SDS011;69542;42.138;24.742;2023-04-24T03:35:37;3.20;;;2.90;;
80233;SDS011;69542;42.138;24.742;2023-04-24T03:38:02;3.97;;;3.00;;
80233;SDS011;69542;42.138;24.742;2023-04-24T03:40:29;3.20;;;2.90;;
80233;SDS011;69542;42.138;24.742;2023-04-24T03:42:55;3.30;;;3.00;;
80233;SDS011;69542;42.138;24.742;2023-04-24T03:45:21;3.40;;;3.10;;
80233;SDS011;69542;42.138;24.742;2023-04-24T03:47:46;3.75;;;3.38;;
80233;SDS011;69542;42.138;24.742;2023-04-24T03:50:12;3.60;;;3.15;;
80233;SDS011;69542;42.138;24.742;2023-04-24T03:52:38;3.10;;;2.90;;
80233;SDS011;69542;42.138;24.742;2023-04-24T03:55:03;3.30;;;3.00;;
80233;SDS011;69542;42.138;24.742;2023-04-24T03:57:32;4.03;;;3.17;;
80233;SDS011;69542;42.138;24.742;2023-04-24T03:59:58;3.30;;;3.00;;
80233;SDS011;69542;42.138;24.742;2023-04-24T04:02:23;3.30;;;3.00;;
80233;SDS011;69542;42.138;24.742;2023-04-24T04:04:49;3.17;;;2.88;;
80233;SDS011;69542;42.138;24.742;2023-04-24T04:07:14;10.93;;;5.85;;
80233;SDS011;69542;42.138;24.742;2023-04-24T04:09:40;11.85;;;7.55;;
80233;SDS011;69542;42.138;24.742;2023-04-24T04:12:06;15.32;;;8.30;;
80233;SDS011;69542;42.138;24.742;2023-04-24T04:14:31;13.07;;;8.75;;
80233;SDS011;69542;42.138;24.742;2023-04-24T04:16:57;12.55;;;8.82;;
80233;SDS011;69542;42.138;24.742;2023-04-24T04:19:23;10.77;;;9.10;;
80233;SDS011;69542;42.138;24.742;2023-04-24T04:21:49;21.08;;;9.90;;
80233;SDS011;69542;42.138;24.742;2023-04-24T04:24:18;12.75;;;9.07;;
80233;SDS011;69542;42.138;24.742;2023-04-24T04:26:45;13.80;;;8.95;;
80233;SDS011;69542;42.138;24.742;2023-04-24T04:29:12;12.77;;;8.68;;
80233;SDS011;69542;42.138;24.742;2023-04-24T04:31:39;14.95;;;8.60;;
80233;SDS011;69542;42.138;24.742;2023-04-24T04:34:04;14.77;;;8.32;;
80233;SDS011;69542;42.138;24.742;2023-04-24T04:36:30;13.57;;;8.85;;
80233;SDS011;69542;42.138;24.742;2023-04-24T04:38:56;15.98;;;8.57;;
80233;SDS011;69542;42.138;24.742;2023-04-24T04:41:24;13.70;;;9.57;;
80233;SDS011;69542;42.138;24.742;2023-04-24T04:43:52;11.38;;;9.60;;
80233;SDS011;69542;42.138;24.742;2023-04-24T04:46:17;14.52;;;9.60;;
80233;SDS011;69542;42.138;24.742;2023-04-24T04:48:43;11.13;;;9.80;;
80233;SDS011;69542;42.138;24.742;2023-04-24T04:51:09;12.32;;;9.43;;
80233;SDS011;69542;42.138;24.742;2023-04-24T04:53:35;11.20;;;9.93;;
80233;SDS011;69542;42.138;24.742;2023-04-24T04:56:00;12.88;;;9.35;;
80233;SDS011;69542;42.138;24.742;2023-04-24T04:58:26;12.68;;;9.82;;
80233;SDS011;69542;42.138;24.742;2023-04-24T05:00:52;12.80;;;9.38;;
80233;SDS011;69542;42.138;24.742;2023-04-24T05:03:20;13.88;;;9.25;;
80233;SDS011;69542;42.138;24.742;2023-04-24T05:05:46;13.95;;;9.52;;
80233;SDS011;69542;42.138;24.742;2023-04-24T05:08:11;11.02;;;9.20;;
80233;SDS011;69542;42.138;24.742;2023-04-24T05:10:37;15.18;;;10.00;;
80233;SDS011;69542;42.138;24.742;2023-04-24T05:13:03;21.77;;;11.73;;
80233;SDS011;69542;42.138;24.742;2023-04-24T05:15:29;15.57;;;11.15;;
80233;SDS011;69542;42.138;24.742;2023-04-24T05:17:55;17.95;;;10.27;;
80233;SDS011;69542;42.138;24.742;2023-04-24T05:20:21;15.63;;;10.02;;
80233;SDS011;69542;42.138;24.742;2023-04-24T05:22:47;17.52;;;10.48;;
80233;SDS011;69542;42.138;24.742;2023-04-24T05:25:12;15.68;;;10.05;;
80233;SDS011;69542;42.138;24.742;2023-04-24T05:27:38;15.85;;;9.60;;
80233;SDS011;69542;42.138;24.742;2023-04-24T05:30:04;13.38;;;9.20;;
80233;SDS011;69542;42.138;24.742;2023-04-24T05:32:31;15.88;;;9.55;;
80233;SDS011;69542;42.138;24.742;2023-04-24T05:34:56;13.63;;;9.25;;
80233;SDS011;69542;42.138;24.742;2023-04-24T05:37:22;14.02;;;9.25;;
80233;SDS011;69542;42.138;24.742;2023-04-24T05:39:48;13.90;;;9.50;;
80233;SDS011;69542;42.138;24.742;2023-04-24T05:42:13;13.07;;;9.50;;
80233;SDS011;69542;42.138;24.742;2023-04-24T05:44:39;16.83;;;9.45;;
80233;SDS011;69542;42.138;24.742;2023-04-24T05:47:05;14.60;;;9.30;;
80233;SDS011;69542;42.138;24.742;2023-04-24T05:49:30;14.70;;;9.63;;
80233;SDS011;69542;42.138;24.742;2023-04-24T05:51:56;13.45;;;9.02;;
80233;SDS011;69542;42.138;24.742;2023-04-24T05:54:22;16.67;;;8.63;;
80233;SDS011;69542;42.138;24.742;2023-04-24T05:56:48;15.30;;;8.80;;
80233;SDS011;69542;42.138;24.742;2023-04-24T05:59:15;16.92;;;9.07;;
80233;SDS011;69542;42.138;24.742;2023-04-24T06:01:41;15.60;;;8.40;;
80233;SDS011;69542;42.138;24.742;2023-04-24T06:04:07;15.50;;;8.20;;
80233;SDS011;69542;42.138;24.742;2023-04-24T06:06:33;16.35;;;8.50;;
80233;SDS011;69542;42.138;24.742;2023-04-24T06:09:00;15.73;;;8.60;;
80233;SDS011;69542;42.138;24.742;2023-04-24T06:11:26;12.75;;;8.27;;
80233;SDS011;69542;42.138;24.742;2023-04-24T06:13:51;13.13;;;8.32;;
80233;SDS011;69542;42.138;24.742;2023-04-24T06:16:17;17.25;;;7.72;;
80233;SDS011;69542;42.138;24.742;2023-04-24T06:18:45;11.80;;;6.82;;
80233;SDS011;69542;42.138;24.742;2023-04-24T06:21:12;12.70;;;7.00;;
80233;SDS011;69542;42.138;24.742;2023-04-24T06:23:38;15.18;;;6.80;;
80233;SDS011;69542;42.138;24.742;2023-04-24T06:26:03;9.82;;;6.70;;
80233;SDS011;69542;42.138;24.742;2023-04-24T06:28:29;12.90;;;6.53;;
80233;SDS011;69542;42.138;24.742;2023-04-24T06:30:57;12.15;;;6.85;;
80233;SDS011;69542;42.138;24.742;2023-04-24T06:33:23;13.70;;;6.57;;
80233;SDS011;69542;42.138;24.742;2023-04-24T06:35:48;12.73;;;6.63;;
80233;SDS011;69542;42.138;24.742;2023-04-24T06:38:14;12.73;;;6.20;;
80233;SDS011;69542;42.138;24.742;2023-04-24T06:40:41;8.48;;;6.20;;
80233;SDS011;69542;42.138;24.742;2023-04-24T06:43:08;12.77;;;6.32;;
80233;SDS011;69542;42.138;24.742;2023-04-24T06:45:34;14.55;;;6.20;;
80233;SDS011;69542;42.138;24.742;2023-04-24T06:48:00;8.57;;;6.07;;
80233;SDS011;69542;42.138;24.742;2023-04-24T06:50:26;10.35;;;6.10;;
80233;SDS011;69542;42.138;24.742;2023-04-24T06:52:51;9.25;;;5.75;;
80233;SDS011;69542;42.138;24.742;2023-04-24T06:55:17;9.63;;;5.90;;
80233;SDS011;69542;42.138;24.742;2023-04-24T06:57:44;11.75;;;6.15;;
80233;SDS011;69542;42.138;24.742;2023-04-24T07:00:10;8.27;;;5.55;;
80233;SDS011;69542;42.138;24.742;2023-04-24T07:02:36;12.75;;;6.00;;
80233;SDS011;69542;42.138;24.742;2023-04-24T07:05:02;8.50;;;5.88;;
80233;SDS011;69542;42.138;24.742;2023-04-24T07:07:29;10.10;;;5.80;;
80233;SDS011;69542;42.138;24.742;2023-04-24T07:09:54;9.35;;;5.70;;
80233;SDS011;69542;42.138;24.742;2023-04-24T07:12:21;8.27;;;5.40;;
80233;SDS011;69542;42.138;24.742;2023-04-24T07:14:47;10.40;;;5.70;;
80233;SDS011;69542;42.138;24.742;2023-04-24T07:17:13;10.75;;;5.88;;
80233;SDS011;69542;42.138;24.742;2023-04-24T07:19:39;7.97;;;5.75;;
80233;SDS011;69542;42.138;24.742;2023-04-24T07:22:05;7.00;;;5.55;;
80233;SDS011;69542;42.138;24.742;2023-04-24T07:24:31;9.98;;;5.75;;
80233;SDS011;69542;42.138;24.742;2023-04-24T07:26:57;10.13;;;5.82;;
80233;SDS011;69542;42.138;24.742;2023-04-24T07:29:24;10.00;;;5.97;;
80233;SDS011;69542;42.138;24.742;2023-04-24T07:31:49;8.00;;;5.45;;
80233;SDS011;69542;42.138;24.742;2023-04-24T07:34:15;6.75;;;5.30;;
80233;SDS011;69542;42.138;24.742;2023-04-24T07:36:41;7.13;;;5.30;;
80233;SDS011;69542;42.138;24.742;2023-04-24T07:39:07;8.98;;;5.50;;
80233;SDS011;69542;42.138;24.742;2023-04-24T07:41:33;9.57;;;5.25;;
80233;SDS011;69542;42.138;24.742;2023-04-24T07:43:59;9.82;;;5.50;;
80233;SDS011;69542;42.138;24.742;2023-04-24T07:46:25;7.57;;;5.53;;
80233;SDS011;69542;42.138;24.742;2023-04-24T07:48:52;7.60;;;5.38;;
80233;SDS011;69542;42.138;24.742;2023-04-24T07:51:18;8.25;;;5.28;;
80233;SDS011;69542;42.138;24.742;2023-04-24T07:53:44;8.52;;;5.35;;
80233;SDS011;69542;42.138;24.742;2023-04-24T07:56:13;7.28;;;5.18;;
80233;SDS011;69542;42.138;24.742;2023-04-24T07:58:38;7.47;;;4.93;;
80233;SDS011;69542;42.138;24.742;2023-04-24T08:01:04;7.80;;;5.10;;
80233;SDS011;69542;42.138;24.742;2023-04-24T08:03:30;7.43;;;5.30;;
80233;SDS011;69542;42.138;24.742;2023-04-24T08:05:56;6.65;;;5.10;;
80233;SDS011;69542;42.138;24.742;2023-04-24T08:08:22;7.03;;;5.35;;
80233;SDS011;69542;42.138;24.742;2023-04-24T08:10:48;7.90;;;5.00;;
80233;SDS011;69542;42.138;24.742;2023-04-24T08:13:14;6.85;;;5.10;;
80233;SDS011;69542;42.138;24.742;2023-04-24T08:15:40;6.72;;;5.07;;
80233;SDS011;69542;42.138;24.742;2023-04-24T08:18:05;6.22;;;4.78;;
80233;SDS011;69542;42.138;24.742;2023-04-24T08:20:32;6.50;;;5.28;;
80233;SDS011;69542;42.138;24.742;2023-04-24T08:22:57;6.57;;;5.07;;
80233;SDS011;69542;42.138;24.742;2023-04-24T08:25:23;7.18;;;5.20;;
80233;SDS011;69542;42.138;24.742;2023-04-24T08:27:50;6.78;;;4.80;;
80233;SDS011;69542;42.138;24.742;2023-04-24T08:30:16;8.15;;;5.15;;
80233;SDS011;69542;42.138;24.742;2023-04-24T08:32:42;6.63;;;5.07;;
80233;SDS011;69542;42.138;24.742;2023-04-24T08:35:07;6.50;;;4.95;;
80233;SDS011;69542;42.138;24.742;2023-04-24T08:37:34;7.78;;;5.43;;
